^^
Meteo Knjazevac Station Historical Data
Daily Summary for April 15, 2021 Units:  Both    English   Metric
Daily Weekly Monthly Yearly Custom
  High: Low: Average:
Temperature: 93.9 °F /  34.4 °C 66.2 °F /  19 °C 75.9 °F /  24.4 °C
Dew Point: 75.5 °F /  24.2 °C 62.1 °F /  16.7 °C 67.3 °F /  19.6 °C
Humidity: 89% 54% 76%
Wind Speed: 7mph /  11.3km/h - 2mph /  3.2km/h
Wind Gust: 16mph /  25.7km/h - -
Wind- - ESE
Pressure: 30.01 in /  1016.1 hPa 29.93 in /  1013.4 hPa -
Precipitation: 0.00 in /  0 mm    
Historical Graphs
 
 
Tabular Data for April 15, 2021
Time Temperature Dew Point Pressure Wind Wind Speed Wind Gust Humidity Rainfall Rate (Hourly) solar Conditions
00:00 74.5 °F /  23.6 °C 65.6 °F /  18.7 °C 29.97in /  1014.8hPa Calm   2mph /  3.2km/h 74% 0.00in /  0mm 0 W/m2
00:10 74.1 °F /  23.4 °C 65.7 °F /  18.7 °C 29.97in /  1014.8hPa Calm   2mph /  3.2km/h 75% 0.00in /  0mm 0 W/m2
00:20 73.8 °F /  23.2 °C 65.3 °F /  18.5 °C 29.98in /  1015.1hPa SSW 1mph /  1.6km/h 2mph /  3.2km/h 75% 0.00in /  0mm 0 W/m2
00:30 73.4 °F /  23 °C 65 °F /  18.3 °C 29.98in /  1015.1hPa Calm   2mph /  3.2km/h 75% 0.00in /  0mm 0 W/m2
00:40 73 °F /  22.8 °C 64.6 °F /  18.1 °C 29.98in /  1015.1hPa Calm   4mph /  6.4km/h 75% 0.00in /  0mm 0 W/m2
00:50 72.9 °F /  22.7 °C 65.2 °F /  18.4 °C 29.98in /  1015.1hPa West 2mph /  3.2km/h 3mph /  4.8km/h 77% 0.00in /  0mm 0 W/m2
01:00 72.5 °F /  22.5 °C 65.2 °F /  18.4 °C 29.98in /  1015.1hPa Calm   2mph /  3.2km/h 78% 0.00in /  0mm 0 W/m2
01:10 72.3 °F /  22.4 °C 65.1 °F /  18.4 °C 29.98in /  1015.1hPa NW 1mph /  1.6km/h 2mph /  3.2km/h 78% 0.00in /  0mm 0 W/m2
01:20 72.1 °F /  22.3 °C 64.9 °F /  18.3 °C 29.99in /  1015.5hPa SW 1mph /  1.6km/h 2mph /  3.2km/h 78% 0.00in /  0mm 0 W/m2
01:30 72 °F /  22.2 °C 64.7 °F /  18.2 °C 29.99in /  1015.5hPa NE 1mph /  1.6km/h 5mph /  8km/h 78% 0.00in /  0mm 0 W/m2
01:40 71.8 °F /  22.1 °C 64.5 °F /  18.1 °C 29.99in /  1015.5hPa South 1mph /  1.6km/h 2mph /  3.2km/h 78% 0.00in /  0mm 0 W/m2
01:50 71.4 °F /  21.9 °C 64.6 °F /  18.1 °C 29.98in /  1015.1hPa WNW 1mph /  1.6km/h 2mph /  3.2km/h 79% 0.00in /  0mm 0 W/m2
02:00 71.2 °F /  21.8 °C 64.4 °F /  18 °C 29.99in /  1015.5hPa Calm   3mph /  4.8km/h 79% 0.00in /  0mm 0 W/m2
02:10 71.2 °F /  21.8 °C 64.4 °F /  18 °C 29.99in /  1015.5hPa Calm   2mph /  3.2km/h 79% 0.00in /  0mm 0 W/m2
02:20 71 °F /  21.7 °C 64.2 °F /  17.9 °C 29.99in /  1015.5hPa WSW 2mph /  3.2km/h 3mph /  4.8km/h 79% 0.00in /  0mm 0 W/m2
02:30 70.7 °F /  21.5 °C 63.9 °F /  17.7 °C 29.99in /  1015.5hPa Calm   2mph /  3.2km/h 79% 0.00in /  0mm 0 W/m2
02:40 70.3 °F /  21.3 °C 63.9 °F /  17.7 °C 29.99in /  1015.5hPa Calm   2mph /  3.2km/h 80% 0.00in /  0mm 0 W/m2
02:50 70.1 °F /  21.2 °C 63.7 °F /  17.6 °C 29.99in /  1015.5hPa Calm   2mph /  3.2km/h 80% 0.00in /  0mm 0 W/m2
03:00 69.8 °F /  21 °C 63.7 °F /  17.6 °C 29.99in /  1015.5hPa Calm   2mph /  3.2km/h 81% 0.00in /  0mm 0 W/m2
03:10 69.4 °F /  20.8 °C 63.4 °F /  17.4 °C 29.99in /  1015.5hPa SW 1mph /  1.6km/h 3mph /  4.8km/h 81% 0.00in /  0mm 0 W/m2
03:20 69.2 °F /  20.7 °C 63.1 °F /  17.3 °C 29.99in /  1015.5hPa Calm   3mph /  4.8km/h 81% 0.00in /  0mm 0 W/m2
03:30 68.9 °F /  20.5 °C 63.5 °F /  17.5 °C 29.99in /  1015.5hPa West 1mph /  1.6km/h 2mph /  3.2km/h 83% 0.00in /  0mm 0 W/m2
03:40 68.7 °F /  20.4 °C 63.3 °F /  17.4 °C 29.99in /  1015.5hPa Calm   2mph /  3.2km/h 83% 0.00in /  0mm 0 W/m2
03:50 68.2 °F /  20.1 °C 63.2 °F /  17.3 °C 29.99in /  1015.5hPa West 1mph /  1.6km/h 3mph /  4.8km/h 84% 0.00in /  0mm 0 W/m2
04:00 68 °F /  20 °C 63 °F /  17.2 °C 29.99in /  1015.5hPa Calm   2mph /  3.2km/h 84% 0.00in /  0mm 0 W/m2
04:10 68 °F /  20 °C 63 °F /  17.2 °C 29.99in /  1015.5hPa Calm   2mph /  3.2km/h 84% 0.00in /  0mm 0 W/m2
04:20 67.6 °F /  19.8 °C 62.6 °F /  17 °C 30.00in /  1015.8hPa Calm   1mph /  1.6km/h 84% 0.00in /  0mm 0 W/m2
04:30 67.6 °F /  19.8 °C 63 °F /  17.2 °C 30.00in /  1015.8hPa Calm   2mph /  3.2km/h 85% 0.00in /  0mm 0 W/m2
04:40 67.5 °F /  19.7 °C 62.8 °F /  17.1 °C 30.00in /  1015.8hPa Calm   3mph /  4.8km/h 85% 0.00in /  0mm 0 W/m2
04:50 67.1 °F /  19.5 °C 62.8 °F /  17.1 °C 30.00in /  1015.8hPa NW 1mph /  1.6km/h 2mph /  3.2km/h 86% 0.00in /  0mm 0 W/m2
05:00 66.9 °F /  19.4 °C 62.6 °F /  17 °C 30.00in /  1015.8hPa NW 2mph /  3.2km/h 2mph /  3.2km/h 86% 0.00in /  0mm 0 W/m2
05:10 66.7 °F /  19.3 °C 62.4 °F /  16.9 °C 30.00in /  1015.8hPa West 3mph /  4.8km/h 5mph /  8km/h 86% 0.00in /  0mm 6 W/m2
05:20 66.7 °F /  19.3 °C 62.4 °F /  16.9 °C 30.00in /  1015.8hPa NW 1mph /  1.6km/h 4mph /  6.4km/h 86% 0.00in /  0mm 11 W/m2
05:30 66.7 °F /  19.3 °C 62.4 °F /  16.9 °C 30.00in /  1015.8hPa NW 1mph /  1.6km/h 2mph /  3.2km/h 86% 0.00in /  0mm 20 W/m2
05:40 66.4 °F /  19.1 °C 62.1 °F /  16.7 °C 30.00in /  1015.8hPa WNW 1mph /  1.6km/h 2mph /  3.2km/h 86% 0.00in /  0mm 30 W/m2
05:50 66.2 °F /  19 °C 62.5 °F /  16.9 °C 30.00in /  1015.8hPa West 1mph /  1.6km/h 3mph /  4.8km/h 88% 0.00in /  0mm 42 W/m2
06:00 66.2 °F /  19 °C 62.5 °F /  16.9 °C 30.00in /  1015.8hPa West 1mph /  1.6km/h 3mph /  4.8km/h 88% 0.00in /  0mm 54 W/m2
06:10 66.4 °F /  19.1 °C 62.7 °F /  17.1 °C 30.00in /  1015.8hPa West 1mph /  1.6km/h 2mph /  3.2km/h 88% 0.00in /  0mm 73 W/m2
06:20 66.4 °F /  19.1 °C 62.7 °F /  17.1 °C 30.00in /  1015.8hPa Calm   2mph /  3.2km/h 88% 0.00in /  0mm 92 W/m2
06:30 66.4 °F /  19.1 °C 62.7 °F /  17.1 °C 30.01in /  1016.1hPa Calm   2mph /  3.2km/h 88% 0.00in /  0mm 115 W/m2
06:40 66.7 °F /  19.3 °C 63.1 °F /  17.3 °C 30.00in /  1015.8hPa West 1mph /  1.6km/h 2mph /  3.2km/h 88% 0.00in /  0mm 138 W/m2
06:50 66.9 °F /  19.4 °C 63.6 °F /  17.6 °C 30.00in /  1015.8hPa WNW 1mph /  1.6km/h 2mph /  3.2km/h 89% 0.00in /  0mm 165 W/m2
07:00 67.3 °F /  19.6 °C 63.6 °F /  17.6 °C 30.00in /  1015.8hPa Calm   2mph /  3.2km/h 88% 0.00in /  0mm 192 W/m2
07:10 67.7 °F /  19.8 °C 64 °F /  17.8 °C 30.01in /  1016.1hPa Calm   2mph /  3.2km/h 88% 0.00in /  0mm 225 W/m2
07:20 68.2 °F /  20.1 °C 64.5 °F /  18.1 °C 30.01in /  1016.1hPa WSW 1mph /  1.6km/h 2mph /  3.2km/h 88% 0.00in /  0mm 256 W/m2
07:30 68.9 °F /  20.5 °C 65.2 °F /  18.4 °C 30.01in /  1016.1hPa WNW 1mph /  1.6km/h 2mph /  3.2km/h 88% 0.00in /  0mm 289 W/m2
07:40 69.4 °F /  20.8 °C 65.7 °F /  18.7 °C 30.01in /  1016.1hPa North 3mph /  4.8km/h 6mph /  9.7km/h 88% 0.00in /  0mm 319 W/m2
07:50 70.4 °F /  21.3 °C 66.3 °F /  19.1 °C 30.01in /  1016.1hPa NNE 3mph /  4.8km/h 6mph /  9.7km/h 87% 0.00in /  0mm 348 W/m2
08:00 71.1 °F /  21.7 °C 66.7 °F /  19.3 °C 30.01in /  1016.1hPa North 3mph /  4.8km/h 7mph /  11.3km/h 86% 0.00in /  0mm 383 W/m2
08:10 71.8 °F /  22.1 °C 67 °F /  19.4 °C 30.01in /  1016.1hPa NNE 3mph /  4.8km/h 7mph /  11.3km/h 85% 0.00in /  0mm 415 W/m2
08:20 72.5 °F /  22.5 °C 67.7 °F /  19.8 °C 30.01in /  1016.1hPa NNE 5mph /  8km/h 8mph /  12.9km/h 85% 0.00in /  0mm 448 W/m2
08:30 73.3 °F /  22.9 °C 68.1 °F /  20.1 °C 30.01in /  1016.1hPa NNE 3mph /  4.8km/h 8mph /  12.9km/h 84% 0.00in /  0mm 480 W/m2
08:40 74.1 °F /  23.4 °C 68.6 °F /  20.3 °C 30.01in /  1016.1hPa NNE 2mph /  3.2km/h 8mph /  12.9km/h 83% 0.00in /  0mm 515 W/m2
08:50 74.8 °F /  23.8 °C 68.6 °F /  20.3 °C 30.00in /  1015.8hPa NNE 1mph /  1.6km/h 8mph /  12.9km/h 81% 0.00in /  0mm 542 W/m2
09:00 75.8 °F /  24.3 °C 69.6 °F /  20.9 °C 30.00in /  1015.8hPa NNE 3mph /  4.8km/h 6mph /  9.7km/h 81% 0.00in /  0mm 574 W/m2
09:10 77.4 °F /  25.2 °C 70.4 °F /  21.3 °C 30.00in /  1015.8hPa North 3mph /  4.8km/h 7mph /  11.3km/h 79% 0.00in /  0mm 598 W/m2
09:20 78.7 °F /  25.9 °C 70.9 °F /  21.6 °C 30.00in /  1015.8hPa NNE 2mph /  3.2km/h 10mph /  16.1km/h 77% 0.00in /  0mm 630 W/m2
09:30 79.8 °F /  26.6 °C 70.7 °F /  21.5 °C 30.00in /  1015.8hPa NNE 5mph /  8km/h 9mph /  14.5km/h 74% 0.00in /  0mm 663 W/m2
09:40 80.8 °F /  27.1 °C 71.3 °F /  21.8 °C 29.99in /  1015.5hPa NNE 3mph /  4.8km/h 8mph /  12.9km/h 73% 0.00in /  0mm 691 W/m2
09:50 81.5 °F /  27.5 °C 70.8 °F /  21.6 °C 29.99in /  1015.5hPa NNE 3mph /  4.8km/h 8mph /  12.9km/h 70% 0.00in /  0mm 718 W/m2
10:00 82.2 °F /  27.9 °C 71 °F /  21.7 °C 29.99in /  1015.5hPa NNE 2mph /  3.2km/h 7mph /  11.3km/h 69% 0.00in /  0mm 746 W/m2
10:10 83.1 °F /  28.4 °C 71.5 °F /  21.9 °C 29.99in /  1015.5hPa NNE 3mph /  4.8km/h 7mph /  11.3km/h 68% 0.00in /  0mm 773 W/m2
10:20 83.7 °F /  28.7 °C 71.6 °F /  22 °C 29.99in /  1015.5hPa North 3mph /  4.8km/h 6mph /  9.7km/h 67% 0.00in /  0mm 798 W/m2
10:30 84.8 °F /  29.3 °C 72.2 °F /  22.3 °C 29.98in /  1015.1hPa North 3mph /  4.8km/h 7mph /  11.3km/h 66% 0.00in /  0mm 815 W/m2
10:40 85.6 °F /  29.8 °C 71.6 °F /  22 °C 29.98in /  1015.1hPa NNE 7mph /  11.3km/h 12mph /  19.3km/h 63% 0.00in /  0mm 830 W/m2
10:50 85.9 °F /  29.9 °C 72.3 °F /  22.4 °C 29.98in /  1015.1hPa NNE 5mph /  8km/h 7mph /  11.3km/h 64% 0.00in /  0mm 293 W/m2
11:00 86.5 °F /  30.3 °C 72.4 °F /  22.4 °C 29.97in /  1014.8hPa NNE 5mph /  8km/h 12mph /  19.3km/h 63% 0.00in /  0mm 814 W/m2
11:10 86.9 °F /  30.5 °C 72.3 °F /  22.4 °C 29.97in /  1014.8hPa North 5mph /  8km/h 9mph /  14.5km/h 62% 0.00in /  0mm 840 W/m2
11:20 88 °F /  31.1 °C 73.3 °F /  22.9 °C 29.97in /  1014.8hPa North 3mph /  4.8km/h 8mph /  12.9km/h 62% 0.00in /  0mm 713 W/m2
11:30 88.6 °F /  31.4 °C 73.9 °F /  23.3 °C 29.97in /  1014.8hPa North 2mph /  3.2km/h 8mph /  12.9km/h 62% 0.00in /  0mm 916 W/m2
11:40 88.9 °F /  31.6 °C 73.2 °F /  22.9 °C 29.97in /  1014.8hPa NNE 7mph /  11.3km/h 12mph /  19.3km/h 60% 0.00in /  0mm 931 W/m2
11:50 89.2 °F /  31.8 °C 73.5 °F /  23.1 °C 29.96in /  1014.4hPa NNE 6mph /  9.7km/h 12mph /  19.3km/h 60% 0.00in /  0mm 936 W/m2
12:00 89.2 °F /  31.8 °C 73 °F /  22.8 °C 29.96in /  1014.4hPa NNE 3mph /  4.8km/h 9mph /  14.5km/h 59% 0.00in /  0mm 945 W/m2
12:10 90 °F /  32.2 °C 74.2 °F /  23.4 °C 29.96in /  1014.4hPa North 3mph /  4.8km/h 10mph /  16.1km/h 60% 0.00in /  0mm 949 W/m2
12:20 90.5 °F /  32.5 °C 74.2 °F /  23.4 °C 29.95in /  1014.1hPa North 5mph /  8km/h 10mph /  16.1km/h 59% 0.00in /  0mm 956 W/m2
12:30 91.4 °F /  33 °C 74.5 °F /  23.6 °C 29.95in /  1014.1hPa North 3mph /  4.8km/h 14mph /  22.5km/h 58% 0.00in /  0mm 959 W/m2
12:40 91.6 °F /  33.1 °C 74.2 °F /  23.4 °C 29.95in /  1014.1hPa NNE 7mph /  11.3km/h 11mph /  17.7km/h 57% 0.00in /  0mm 768 W/m2
12:50 91.5 °F /  33.1 °C 74.6 °F /  23.7 °C 29.95in /  1014.1hPa NNE 3mph /  4.8km/h 11mph /  17.7km/h 58% 0.00in /  0mm 438 W/m2
13:00 92.4 °F /  33.6 °C 75.5 °F /  24.2 °C 29.95in /  1014.1hPa North 5mph /  8km/h 12mph /  19.3km/h 58% 0.00in /  0mm 586 W/m2
13:10 92.6 °F /  33.7 °C 74.6 °F /  23.7 °C 29.94in /  1013.8hPa North 3mph /  4.8km/h 13mph /  20.9km/h 56% 0.00in /  0mm 456 W/m2
13:20 92.8 °F /  33.8 °C 74.3 °F /  23.5 °C 29.94in /  1013.8hPa North 6mph /  9.7km/h 12mph /  19.3km/h 55% 0.00in /  0mm 946 W/m2
13:30 93.4 °F /  34.1 °C 74.8 °F /  23.8 °C 29.94in /  1013.8hPa North 3mph /  4.8km/h 10mph /  16.1km/h 55% 0.00in /  0mm 939 W/m2
13:40 93.6 °F /  34.2 °C 74.4 °F /  23.6 °C 29.94in /  1013.8hPa NNW 6mph /  9.7km/h 12mph /  19.3km/h 54% 0.00in /  0mm 923 W/m2
13:50 93.9 °F /  34.4 °C 74.7 °F /  23.7 °C 29.93in /  1013.4hPa North 2mph /  3.2km/h 16mph /  25.7km/h 54% 0.00in /  0mm 911 W/m2
Knjazevac, Serbia
Compliments of Weather Underground - 2 mb